sensor_id;sensor_type;location;lat;lon;timestamp;temperature;humidity
26707;DHT22;14319;49.422;10.934;2023-08-08T00:00:44;13.60;90.10
26707;DHT22;14319;49.422;10.934;2023-08-08T00:02:44;13.70;90.60
26707;DHT22;14319;49.422;10.934;2023-08-08T00:04:45;13.60;90.00
26707;DHT22;14319;49.422;10.934;2023-08-08T00:06:46;13.70;90.80
26707;DHT22;14319;49.422;10.934;2023-08-08T00:08:46;13.60;90.70
26707;DHT22;14319;49.422;10.934;2023-08-08T00:10:47;13.70;90.20
26707;DHT22;14319;49.422;10.934;2023-08-08T00:12:48;13.70;90.30
26707;DHT22;14319;49.422;10.934;2023-08-08T00:14:48;13.80;90.00
26707;DHT22;14319;49.422;10.934;2023-08-08T00:16:49;13.70;89.90
26707;DHT22;14319;49.422;10.934;2023-08-08T00:18:50;13.70;89.80
26707;DHT22;14319;49.422;10.934;2023-08-08T00:20:53;13.70;89.70
26707;DHT22;14319;49.422;10.934;2023-08-08T00:22:54;13.70;89.30
26707;DHT22;14319;49.422;10.934;2023-08-08T00:24:54;13.70;89.30
26707;DHT22;14319;49.422;10.934;2023-08-08T00:26:55;13.60;89.90
26707;DHT22;14319;49.422;10.934;2023-08-08T00:28:56;13.60;89.30
26707;DHT22;14319;49.422;10.934;2023-08-08T00:30:57;13.60;89.60
26707;DHT22;14319;49.422;10.934;2023-08-08T00:32:57;13.60;89.90
26707;DHT22;14319;49.422;10.934;2023-08-08T00:34:58;13.60;90.50
26707;DHT22;14319;49.422;10.934;2023-08-08T00:36:58;13.60;90.10
26707;DHT22;14319;49.422;10.934;2023-08-08T00:38:59;13.70;89.90
26707;DHT22;14319;49.422;10.934;2023-08-08T00:40:59;13.60;90.20
26707;DHT22;14319;49.422;10.934;2023-08-08T00:43:00;13.60;89.60
26707;DHT22;14319;49.422;10.934;2023-08-08T00:45:01;13.60;89.50
26707;DHT22;14319;49.422;10.934;2023-08-08T00:47:04;13.60;90.20
26707;DHT22;14319;49.422;10.934;2023-08-08T00:49:05;13.60;90.20
26707;DHT22;14319;49.422;10.934;2023-08-08T00:51:06;13.70;89.90
26707;DHT22;14319;49.422;10.934;2023-08-08T00:53:06;13.70;89.20
26707;DHT22;14319;49.422;10.934;2023-08-08T00:55:07;13.70;88.80
26707;DHT22;14319;49.422;10.934;2023-08-08T00:57:08;13.70;89.00
26707;DHT22;14319;49.422;10.934;2023-08-08T00:59:11;13.70;89.90
26707;DHT22;14319;49.422;10.934;2023-08-08T01:01:13;13.70;89.40
26707;DHT22;14319;49.422;10.934;2023-08-08T01:03:13;13.70;90.00
26707;DHT22;14319;49.422;10.934;2023-08-08T01:05:14;13.70;89.50
26707;DHT22;14319;49.422;10.934;2023-08-08T01:07:32;13.70;89.60
26707;DHT22;14319;49.422;10.934;2023-08-08T01:09:37;13.60;89.50
26707;DHT22;14319;49.422;10.934;2023-08-08T01:11:39;13.60;88.70
26707;DHT22;14319;49.422;10.934;2023-08-08T01:13:41;13.60;89.90
26707;DHT22;14319;49.422;10.934;2023-08-08T01:15:43;13.70;89.70
26707;DHT22;14319;49.422;10.934;2023-08-08T01:17:46;13.70;89.90
26707;DHT22;14319;49.422;10.934;2023-08-08T01:19:46;13.70;88.30
26707;DHT22;14319;49.422;10.934;2023-08-08T01:21:48;13.60;88.00
26707;DHT22;14319;49.422;10.934;2023-08-08T01:26:07;13.60;89.40
26707;DHT22;14319;49.422;10.934;2023-08-08T01:28:08;13.60;89.10
26707;DHT22;14319;49.422;10.934;2023-08-08T01:30:09;13.70;89.00
26707;DHT22;14319;49.422;10.934;2023-08-08T01:32:09;13.60;89.00
26707;DHT22;14319;49.422;10.934;2023-08-08T01:34:11;13.60;89.50
26707;DHT22;14319;49.422;10.934;2023-08-08T01:36:20;13.60;89.30
26707;DHT22;14319;49.422;10.934;2023-08-08T01:38:38;13.60;89.20
26707;DHT22;14319;49.422;10.934;2023-08-08T01:40:43;13.60;89.60
26707;DHT22;14319;49.422;10.934;2023-08-08T01:42:47;13.70;89.40
26707;DHT22;14319;49.422;10.934;2023-08-08T01:44:48;13.60;89.50
26707;DHT22;14319;49.422;10.934;2023-08-08T01:46:49;13.70;88.70
26707;DHT22;14319;49.422;10.934;2023-08-08T01:48:49;13.70;88.30
26707;DHT22;14319;49.422;10.934;2023-08-08T01:50:50;13.70;88.70
26707;DHT22;14319;49.422;10.934;2023-08-08T01:52:51;13.70;88.70
26707;DHT22;14319;49.422;10.934;2023-08-08T01:54:51;13.70;89.20
26707;DHT22;14319;49.422;10.934;2023-08-08T01:56:52;13.60;88.90
26707;DHT22;14319;49.422;10.934;2023-08-08T01:58:52;13.60;89.40
26707;DHT22;14319;49.422;10.934;2023-08-08T02:00:53;13.60;88.70
26707;DHT22;14319;49.422;10.934;2023-08-08T02:02:53;13.60;88.60
26707;DHT22;14319;49.422;10.934;2023-08-08T02:04:54;13.70;88.60
26707;DHT22;14319;49.422;10.934;2023-08-08T02:06:55;13.70;87.80
26707;DHT22;14319;49.422;10.934;2023-08-08T02:08:56;13.70;88.40
26707;DHT22;14319;49.422;10.934;2023-08-08T02:10:56;13.70;88.50
26707;DHT22;14319;49.422;10.934;2023-08-08T02:12:57;13.70;88.40
26707;DHT22;14319;49.422;10.934;2023-08-08T02:14:57;13.70;88.10
26707;DHT22;14319;49.422;10.934;2023-08-08T02:16:58;13.70;87.00
26707;DHT22;14319;49.422;10.934;2023-08-08T02:18:59;13.80;88.20
26707;DHT22;14319;49.422;10.934;2023-08-08T02:21:01;13.70;86.80
26707;DHT22;14319;49.422;10.934;2023-08-08T02:23:01;13.70;86.60
26707;DHT22;14319;49.422;10.934;2023-08-08T02:25:02;13.60;88.10
26707;DHT22;14319;49.422;10.934;2023-08-08T02:27:03;13.60;87.40
26707;DHT22;14319;49.422;10.934;2023-08-08T02:29:04;13.60;86.80
26707;DHT22;14319;49.422;10.934;2023-08-08T02:31:05;13.60;87.50
26707;DHT22;14319;49.422;10.934;2023-08-08T02:33:05;13.70;87.10
26707;DHT22;14319;49.422;10.934;2023-08-08T02:35:06;13.60;85.70
26707;DHT22;14319;49.422;10.934;2023-08-08T02:37:07;13.50;87.90
26707;DHT22;14319;49.422;10.934;2023-08-08T02:39:08;13.60;88.20
26707;DHT22;14319;49.422;10.934;2023-08-08T02:41:08;13.60;88.10
26707;DHT22;14319;49.422;10.934;2023-08-08T02:43:09;13.70;87.70
26707;DHT22;14319;49.422;10.934;2023-08-08T02:45:11;13.70;88.20
26707;DHT22;14319;49.422;10.934;2023-08-08T02:47:12;13.70;88.20
26707;DHT22;14319;49.422;10.934;2023-08-08T02:49:13;13.50;87.20
26707;DHT22;14319;49.422;10.934;2023-08-08T02:51:14;13.40;88.90
26707;DHT22;14319;49.422;10.934;2023-08-08T02:53:14;13.30;87.80
26707;DHT22;14319;49.422;10.934;2023-08-08T02:55:19;13.20;89.20
26707;DHT22;14319;49.422;10.934;2023-08-08T02:57:23;13.20;89.20
26707;DHT22;14319;49.422;10.934;2023-08-08T02:59:23;13.30;92.50
26707;DHT22;14319;49.422;10.934;2023-08-08T03:01:26;13.10;93.00
26707;DHT22;14319;49.422;10.934;2023-08-08T03:03:26;13.20;93.80
26707;DHT22;14319;49.422;10.934;2023-08-08T03:05:27;13.40;95.70
26707;DHT22;14319;49.422;10.934;2023-08-08T03:07:28;13.50;96.50
26707;DHT22;14319;49.422;10.934;2023-08-08T03:09:29;13.50;97.00
26707;DHT22;14319;49.422;10.934;2023-08-08T03:11:30;13.40;96.10
26707;DHT22;14319;49.422;10.934;2023-08-08T03:13:30;13.50;97.80
26707;DHT22;14319;49.422;10.934;2023-08-08T03:15:31;13.40;97.50
26707;DHT22;14319;49.422;10.934;2023-08-08T03:17:32;13.50;97.30
26707;DHT22;14319;49.422;10.934;2023-08-08T03:19:34;13.50;97.40
26707;DHT22;14319;49.422;10.934;2023-08-08T03:21:36;13.50;97.50
26707;DHT22;14319;49.422;10.934;2023-08-08T03:23:37;13.50;97.60
26707;DHT22;14319;49.422;10.934;2023-08-08T03:25:38;13.50;97.40
26707;DHT22;14319;49.422;10.934;2023-08-08T03:27:39;13.50;97.00
26707;DHT22;14319;49.422;10.934;2023-08-08T03:29:40;13.50;97.80
26707;DHT22;14319;49.422;10.934;2023-08-08T03:31:40;13.50;97.80
26707;DHT22;14319;49.422;10.934;2023-08-08T03:33:41;13.50;97.80
26707;DHT22;14319;49.422;10.934;2023-08-08T03:35:44;13.40;97.70
26707;DHT22;14319;49.422;10.934;2023-08-08T03:37:45;13.40;97.90
26707;DHT22;14319;49.422;10.934;2023-08-08T03:39:46;13.40;98.20
26707;DHT22;14319;49.422;10.934;2023-08-08T03:41:46;13.30;98.50
26707;DHT22;14319;49.422;10.934;2023-08-08T03:43:47;13.30;98.50
26707;DHT22;14319;49.422;10.934;2023-08-08T03:45:48;13.20;98.30
26707;DHT22;14319;49.422;10.934;2023-08-08T03:47:49;13.30;98.10
26707;DHT22;14319;49.422;10.934;2023-08-08T03:49:49;13.30;98.50
26707;DHT22;14319;49.422;10.934;2023-08-08T03:51:51;13.30;97.50
26707;DHT22;14319;49.422;10.934;2023-08-08T03:53:52;13.20;97.30
26707;DHT22;14319;49.422;10.934;2023-08-08T03:55:52;13.20;98.40
26707;DHT22;14319;49.422;10.934;2023-08-08T03:57:53;13.20;97.80
26707;DHT22;14319;49.422;10.934;2023-08-08T03:59:53;13.20;97.80
26707;DHT22;14319;49.422;10.934;2023-08-08T04:01:54;13.30;98.20
26707;DHT22;14319;49.422;10.934;2023-08-08T04:03:55;13.30;98.10
26707;DHT22;14319;49.422;10.934;2023-08-08T04:05:56;13.30;98.00
26707;DHT22;14319;49.422;10.934;2023-08-08T04:07:56;13.30;97.80
26707;DHT22;14319;49.422;10.934;2023-08-08T04:09:57;13.30;97.90
26707;DHT22;14319;49.422;10.934;2023-08-08T04:11:58;13.40;98.50
26707;DHT22;14319;49.422;10.934;2023-08-08T04:13:58;13.30;98.20
26707;DHT22;14319;49.422;10.934;2023-08-08T04:15:59;13.30;97.80
26707;DHT22;14319;49.422;10.934;2023-08-08T04:18:00;13.40;97.20
26707;DHT22;14319;49.422;10.934;2023-08-08T04:20:01;13.30;97.70
26707;DHT22;14319;49.422;10.934;2023-08-08T04:22:02;13.30;97.30
26707;DHT22;14319;49.422;10.934;2023-08-08T04:24:02;13.30;97.30
26707;DHT22;14319;49.422;10.934;2023-08-08T04:26:03;13.30;97.00
26707;DHT22;14319;49.422;10.934;2023-08-08T04:28:04;13.20;96.30
26707;DHT22;14319;49.422;10.934;2023-08-08T04:30:05;13.20;96.90
26707;DHT22;14319;49.422;10.934;2023-08-08T04:32:06;13.20;97.10
26707;DHT22;14319;49.422;10.934;2023-08-08T04:34:06;13.20;97.20
26707;DHT22;14319;49.422;10.934;2023-08-08T04:36:07;13.10;97.10
26707;DHT22;14319;49.422;10.934;2023-08-08T04:38:08;13.20;97.20
26707;DHT22;14319;49.422;10.934;2023-08-08T04:40:09;13.10;96.70
26707;DHT22;14319;49.422;10.934;2023-08-08T04:42:09;13.10;97.30
26707;DHT22;14319;49.422;10.934;2023-08-08T04:44:10;13.10;97.50
26707;DHT22;14319;49.422;10.934;2023-08-08T04:46:10;13.10;97.50
26707;DHT22;14319;49.422;10.934;2023-08-08T04:48:12;13.20;97.30
26707;DHT22;14319;49.422;10.934;2023-08-08T04:50:12;13.20;97.10
26707;DHT22;14319;49.422;10.934;2023-08-08T04:52:13;13.20;97.10
26707;DHT22;14319;49.422;10.934;2023-08-08T04:54:13;13.20;96.80
26707;DHT22;14319;49.422;10.934;2023-08-08T04:56:14;13.20;97.20
26707;DHT22;14319;49.422;10.934;2023-08-08T04:58:14;13.20;97.20
26707;DHT22;14319;49.422;10.934;2023-08-08T05:00:15;13.20;96.90
26707;DHT22;14319;49.422;10.934;2023-08-08T05:02:16;13.20;96.60
26707;DHT22;14319;49.422;10.934;2023-08-08T05:04:17;13.20;96.50
26707;DHT22;14319;49.422;10.934;2023-08-08T05:06:18;13.20;96.80
26707;DHT22;14319;49.422;10.934;2023-08-08T05:08:18;13.10;97.00
26707;DHT22;14319;49.422;10.934;2023-08-08T05:10:19;13.10;97.60
26707;DHT22;14319;49.422;10.934;2023-08-08T05:12:20;13.10;97.70
26707;DHT22;14319;49.422;10.934;2023-08-08T05:14:20;13.20;97.90
26707;DHT22;14319;49.422;10.934;2023-08-08T05:16:21;13.10;97.30
26707;DHT22;14319;49.422;10.934;2023-08-08T05:18:23;12.90;95.70
26707;DHT22;14319;49.422;10.934;2023-08-08T05:20:23;12.90;97.20
26707;DHT22;14319;49.422;10.934;2023-08-08T05:22:24;12.90;97.50
26707;DHT22;14319;49.422;10.934;2023-08-08T05:24:24;12.90;96.40
26707;DHT22;14319;49.422;10.934;2023-08-08T05:26:25;13.00;97.60
26707;DHT22;14319;49.422;10.934;2023-08-08T05:28:25;12.90;96.30
26707;DHT22;14319;49.422;10.934;2023-08-08T05:30:26;12.80;96.40
26707;DHT22;14319;49.422;10.934;2023-08-08T05:32:27;12.70;96.70
26707;DHT22;14319;49.422;10.934;2023-08-08T05:34:27;12.80;97.90
26707;DHT22;14319;49.422;10.934;2023-08-08T05:36:28;12.70;97.80
26707;DHT22;14319;49.422;10.934;2023-08-08T05:38:28;12.90;99.50
26707;DHT22;14319;49.422;10.934;2023-08-08T05:40:29;12.90;98.80
26707;DHT22;14319;49.422;10.934;2023-08-08T05:42:29;12.90;97.20
26707;DHT22;14319;49.422;10.934;2023-08-08T05:44:32;13.00;98.50
26707;DHT22;14319;49.422;10.934;2023-08-08T05:46:32;13.10;98.50
26707;DHT22;14319;49.422;10.934;2023-08-08T05:48:33;13.10;98.00
26707;DHT22;14319;49.422;10.934;2023-08-08T05:50:33;13.00;98.10
26707;DHT22;14319;49.422;10.934;2023-08-08T05:52:34;13.20;99.10
26707;DHT22;14319;49.422;10.934;2023-08-08T05:54:34;13.10;97.10
26707;DHT22;14319;49.422;10.934;2023-08-08T05:56:36;13.20;98.50
26707;DHT22;14319;49.422;10.934;2023-08-08T05:58:37;13.30;98.00
26707;DHT22;14319;49.422;10.934;2023-08-08T06:00:40;13.40;98.70
26707;DHT22;14319;49.422;10.934;2023-08-08T06:02:42;13.40;99.50
26707;DHT22;14319;49.422;10.934;2023-08-08T06:04:43;13.50;99.70
26707;DHT22;14319;49.422;10.934;2023-08-08T06:06:44;13.60;99.30
26707;DHT22;14319;49.422;10.934;2023-08-08T06:08:44;13.70;99.00
26707;DHT22;14319;49.422;10.934;2023-08-08T06:10:45;13.80;96.80
26707;DHT22;14319;49.422;10.934;2023-08-08T06:12:46;13.80;97.30
26707;DHT22;14319;49.422;10.934;2023-08-08T06:14:46;14.00;97.30
26707;DHT22;14319;49.422;10.934;2023-08-08T06:16:47;14.00;96.80
26707;DHT22;14319;49.422;10.934;2023-08-08T06:18:48;14.00;96.30
26707;DHT22;14319;49.422;10.934;2023-08-08T06:20:49;13.90;95.00
26707;DHT22;14319;49.422;10.934;2023-08-08T06:22:49;13.90;94.70
26707;DHT22;14319;49.422;10.934;2023-08-08T06:24:50;14.00;95.10
26707;DHT22;14319;49.422;10.934;2023-08-08T06:26:50;14.00;94.50
26707;DHT22;14319;49.422;10.934;2023-08-08T06:28:51;14.00;95.70
26707;DHT22;14319;49.422;10.934;2023-08-08T06:30:51;14.00;96.30
26707;DHT22;14319;49.422;10.934;2023-08-08T06:32:52;13.90;94.70
26707;DHT22;14319;49.422;10.934;2023-08-08T06:34:53;13.90;95.70
26707;DHT22;14319;49.422;10.934;2023-08-08T06:36:54;14.00;94.80
26707;DHT22;14319;49.422;10.934;2023-08-08T06:38:54;14.10;94.60
26707;DHT22;14319;49.422;10.934;2023-08-08T06:40:55;14.00;94.40
26707;DHT22;14319;49.422;10.934;2023-08-08T06:42:56;14.10;95.60
26707;DHT22;14319;49.422;10.934;2023-08-08T06:44:57;14.20;95.10
26707;DHT22;14319;49.422;10.934;2023-08-08T06:46:57;14.20;95.20
26707;DHT22;14319;49.422;10.934;2023-08-08T06:48:58;14.20;95.20
26707;DHT22;14319;49.422;10.934;2023-08-08T06:51:00;14.30;92.70
26707;DHT22;14319;49.422;10.934;2023-08-08T06:53:00;14.30;93.50
26707;DHT22;14319;49.422;10.934;2023-08-08T06:55:01;14.40;93.60
26707;DHT22;14319;49.422;10.934;2023-08-08T06:57:02;14.30;92.80
26707;DHT22;14319;49.422;10.934;2023-08-08T06:59:03;14.40;94.70
26707;DHT22;14319;49.422;10.934;2023-08-08T07:01:03;14.50;94.40
26707;DHT22;14319;49.422;10.934;2023-08-08T07:03:04;14.50;94.50
26707;DHT22;14319;49.422;10.934;2023-08-08T07:05:05;14.60;93.10
26707;DHT22;14319;49.422;10.934;2023-08-08T07:07:07;14.80;93.60
26707;DHT22;14319;49.422;10.934;2023-08-08T07:09:07;14.80;93.80
26707;DHT22;14319;49.422;10.934;2023-08-08T07:11:10;14.90;94.10
26707;DHT22;14319;49.422;10.934;2023-08-08T07:13:11;15.00;92.50
26707;DHT22;14319;49.422;10.934;2023-08-08T07:15:12;15.00;91.00
26707;DHT22;14319;49.422;10.934;2023-08-08T07:17:12;15.10;91.70
26707;DHT22;14319;49.422;10.934;2023-08-08T07:19:13;15.10;90.30
26707;DHT22;14319;49.422;10.934;2023-08-08T07:21:14;15.10;91.10
26707;DHT22;14319;49.422;10.934;2023-08-08T07:23:15;15.00;89.50
26707;DHT22;14319;49.422;10.934;2023-08-08T07:25:17;15.00;90.40
26707;DHT22;14319;49.422;10.934;2023-08-08T07:27:17;15.00;90.40
26707;DHT22;14319;49.422;10.934;2023-08-08T07:29:18;14.90;90.00
26707;DHT22;14319;49.422;10.934;2023-08-08T07:31:18;15.00;89.90
26707;DHT22;14319;49.422;10.934;2023-08-08T07:33:19;14.90;90.00
26707;DHT22;14319;49.422;10.934;2023-08-08T07:35:20;15.00;90.70
26707;DHT22;14319;49.422;10.934;2023-08-08T07:37:20;15.00;90.00
26707;DHT22;14319;49.422;10.934;2023-08-08T07:39:21;15.10;90.50
26707;DHT22;14319;49.422;10.934;2023-08-08T07:41:21;15.20;91.30
26707;DHT22;14319;49.422;10.934;2023-08-08T07:43:24;15.20;88.30
26707;DHT22;14319;49.422;10.934;2023-08-08T07:45:25;15.10;89.00
26707;DHT22;14319;49.422;10.934;2023-08-08T07:47:25;15.00;89.30
26707;DHT22;14319;49.422;10.934;2023-08-08T07:49:26;15.10;91.10
26707;DHT22;14319;49.422;10.934;2023-08-08T07:51:26;15.10;91.30
26707;DHT22;14319;49.422;10.934;2023-08-08T07:53:27;15.20;89.80
26707;DHT22;14319;49.422;10.934;2023-08-08T07:55:28;15.30;89.40
26707;DHT22;14319;49.422;10.934;2023-08-08T07:57:28;15.30;90.70
26707;DHT22;14319;49.422;10.934;2023-08-08T07:59:30;15.50;88.10
26707;DHT22;14319;49.422;10.934;2023-08-08T08:01:31;15.60;89.90
26707;DHT22;14319;49.422;10.934;2023-08-08T08:03:31;15.70;87.90
26707;DHT22;14319;49.422;10.934;2023-08-08T08:05:32;15.70;87.50
26707;DHT22;14319;49.422;10.934;2023-08-08T08:07:35;15.80;86.50
26707;DHT22;14319;49.422;10.934;2023-08-08T08:09:36;15.90;84.10
26707;DHT22;14319;49.422;10.934;2023-08-08T08:11:36;16.00;86.70
26707;DHT22;14319;49.422;10.934;2023-08-08T08:13:37;16.10;86.50
26707;DHT22;14319;49.422;10.934;2023-08-08T08:15:38;16.20;82.80
26707;DHT22;14319;49.422;10.934;2023-08-08T08:17:39;16.30;84.60
26707;DHT22;14319;49.422;10.934;2023-08-08T08:19:39;16.30;82.20
26707;DHT22;14319;49.422;10.934;2023-08-08T08:21:40;16.20;82.10
26707;DHT22;14319;49.422;10.934;2023-08-08T08:23:40;16.10;81.00
26707;DHT22;14319;49.422;10.934;2023-08-08T08:25:41;16.10;83.10
26707;DHT22;14319;49.422;10.934;2023-08-08T08:27:42;16.10;81.80
26707;DHT22;14319;49.422;10.934;2023-08-08T08:29:42;16.10;82.10
26707;DHT22;14319;49.422;10.934;2023-08-08T08:31:43;16.10;81.40
26707;DHT22;14319;49.422;10.934;2023-08-08T08:33:44;16.20;78.70
26707;DHT22;14319;49.422;10.934;2023-08-08T08:35:44;16.20;81.50
26707;DHT22;14319;49.422;10.934;2023-08-08T08:37:46;16.20;80.10
26707;DHT22;14319;49.422;10.934;2023-08-08T08:39:46;16.40;79.30
26707;DHT22;14319;49.422;10.934;2023-08-08T08:41:49;16.50;80.30
26707;DHT22;14319;49.422;10.934;2023-08-08T08:43:51;16.60;81.20
26707;DHT22;14319;49.422;10.934;2023-08-08T08:45:53;16.60;81.10
26707;DHT22;14319;49.422;10.934;2023-08-08T08:47:56;16.60;79.70
26707;DHT22;14319;49.422;10.934;2023-08-08T08:49:58;16.70;79.40
26707;DHT22;14319;49.422;10.934;2023-08-08T08:51:59;16.70;77.10
26707;DHT22;14319;49.422;10.934;2023-08-08T08:54:01;16.60;77.10
26707;DHT22;14319;49.422;10.934;2023-08-08T08:56:02;16.60;76.40
26707;DHT22;14319;49.422;10.934;2023-08-08T08:58:03;16.60;75.60
26707;DHT22;14319;49.422;10.934;2023-08-08T09:00:06;16.70;77.00
26707;DHT22;14319;49.422;10.934;2023-08-08T09:02:08;16.70;76.50
26707;DHT22;14319;49.422;10.934;2023-08-08T09:04:09;16.60;75.20
26707;DHT22;14319;49.422;10.934;2023-08-08T09:06:11;16.50;75.40
26707;DHT22;14319;49.422;10.934;2023-08-08T09:08:12;16.50;77.30
26707;DHT22;14319;49.422;10.934;2023-08-08T09:10:15;16.50;77.60
26707;DHT22;14319;49.422;10.934;2023-08-08T09:12:16;16.70;75.50
26707;DHT22;14319;49.422;10.934;2023-08-08T09:14:18;16.80;75.00
26707;DHT22;14319;49.422;10.934;2023-08-08T09:16:19;16.90;74.20
26707;DHT22;14319;49.422;10.934;2023-08-08T09:18:23;17.00;73.90
26707;DHT22;14319;49.422;10.934;2023-08-08T09:20:25;17.10;74.80
26707;DHT22;14319;49.422;10.934;2023-08-08T09:22:28;17.10;72.20
26707;DHT22;14319;49.422;10.934;2023-08-08T09:24:29;17.20;74.70
26707;DHT22;14319;49.422;10.934;2023-08-08T09:26:29;17.30;74.70
26707;DHT22;14319;49.422;10.934;2023-08-08T09:28:30;17.30;75.10
26707;DHT22;14319;49.422;10.934;2023-08-08T09:30:30;17.20;74.30
26707;DHT22;14319;49.422;10.934;2023-08-08T09:32:31;17.00;73.40
26707;DHT22;14319;49.422;10.934;2023-08-08T09:34:32;17.10;73.10
26707;DHT22;14319;49.422;10.934;2023-08-08T09:36:33;17.10;74.60
26707;DHT22;14319;49.422;10.934;2023-08-08T09:38:35;17.10;75.10
26707;DHT22;14319;49.422;10.934;2023-08-08T09:40:36;17.10;74.90
26707;DHT22;14319;49.422;10.934;2023-08-08T09:42:37;17.20;73.90
26707;DHT22;14319;49.422;10.934;2023-08-08T09:44:37;17.20;74.00
26707;DHT22;14319;49.422;10.934;2023-08-08T09:46:39;17.30;74.60
26707;DHT22;14319;49.422;10.934;2023-08-08T09:48:40;17.30;73.50
26707;DHT22;14319;49.422;10.934;2023-08-08T09:50:41;17.20;71.30
26707;DHT22;14319;49.422;10.934;2023-08-08T09:52:43;17.30;73.10
26707;DHT22;14319;49.422;10.934;2023-08-08T09:54:44;17.40;74.80
26707;DHT22;14319;49.422;10.934;2023-08-08T09:56:45;17.50;72.40
26707;DHT22;14319;49.422;10.934;2023-08-08T09:58:46;17.50;72.70
26707;DHT22;14319;49.422;10.934;2023-08-08T10:00:49;17.50;74.10
26707;DHT22;14319;49.422;10.934;2023-08-08T10:02:50;17.50;72.90
26707;DHT22;14319;49.422;10.934;2023-08-08T10:04:51;17.50;69.40
26707;DHT22;14319;49.422;10.934;2023-08-08T10:06:52;17.40;69.10
26707;DHT22;14319;49.422;10.934;2023-08-08T10:08:53;17.40;70.10
26707;DHT22;14319;49.422;10.934;2023-08-08T10:10:55;17.40;71.20
26707;DHT22;14319;49.422;10.934;2023-08-08T10:12:56;17.40;70.50
26707;DHT22;14319;49.422;10.934;2023-08-08T10:14:57;17.40;67.00
26707;DHT22;14319;49.422;10.934;2023-08-08T10:16:58;17.50;68.80
26707;DHT22;14319;49.422;10.934;2023-08-08T10:19:01;17.50;70.70
26707;DHT22;14319;49.422;10.934;2023-08-08T10:21:04;17.50;68.20
26707;DHT22;14319;49.422;10.934;2023-08-08T10:23:05;17.50;68.10
26707;DHT22;14319;49.422;10.934;2023-08-08T10:25:07;17.50;69.60
26707;DHT22;14319;49.422;10.934;2023-08-08T10:27:08;17.50;67.90
26707;DHT22;14319;49.422;10.934;2023-08-08T10:29:18;17.50;68.60
26707;DHT22;14319;49.422;10.934;2023-08-08T10:31:20;17.50;69.00
26707;DHT22;14319;49.422;10.934;2023-08-08T10:33:26;17.60;70.10
26707;DHT22;14319;49.422;10.934;2023-08-08T10:35:36;17.70;69.70
26707;DHT22;14319;49.422;10.934;2023-08-08T10:37:37;17.80;67.30
26707;DHT22;14319;49.422;10.934;2023-08-08T10:39:58;17.90;68.10
26707;DHT22;14319;49.422;10.934;2023-08-08T10:42:03;17.80;67.20
26707;DHT22;14319;49.422;10.934;2023-08-08T10:44:08;17.90;67.50
26707;DHT22;14319;49.422;10.934;2023-08-08T10:46:11;17.80;68.20
26707;DHT22;14319;49.422;10.934;2023-08-08T10:48:12;17.80;69.10
26707;DHT22;14319;49.422;10.934;2023-08-08T10:50:14;17.80;69.40
26707;DHT22;14319;49.422;10.934;2023-08-08T10:52:15;17.80;69.70
26707;DHT22;14319;49.422;10.934;2023-08-08T10:54:19;17.90;70.50
26707;DHT22;14319;49.422;10.934;2023-08-08T10:56:22;17.80;67.30
26707;DHT22;14319;49.422;10.934;2023-08-08T10:58:35;17.90;69.10
26707;DHT22;14319;49.422;10.934;2023-08-08T11:00:37;18.00;68.90
26707;DHT22;14319;49.422;10.934;2023-08-08T11:02:40;18.00;70.00
26707;DHT22;14319;49.422;10.934;2023-08-08T11:04:42;18.00;68.70
26707;DHT22;14319;49.422;10.934;2023-08-08T11:06:43;18.20;65.80
26707;DHT22;14319;49.422;10.934;2023-08-08T11:08:44;18.10;65.50
26707;DHT22;14319;49.422;10.934;2023-08-08T11:10:44;18.10;67.30
26707;DHT22;14319;49.422;10.934;2023-08-08T11:13:00;18.30;67.60
26707;DHT22;14319;49.422;10.934;2023-08-08T11:15:01;18.40;66.80
26707;DHT22;14319;49.422;10.934;2023-08-08T11:17:01;18.40;65.10
26707;DHT22;14319;49.422;10.934;2023-08-08T11:19:02;18.40;65.20
26707;DHT22;14319;49.422;10.934;2023-08-08T11:21:09;18.50;64.80
26707;DHT22;14319;49.422;10.934;2023-08-08T11:23:10;18.50;62.20
26707;DHT22;14319;49.422;10.934;2023-08-08T11:25:14;18.50;64.40
26707;DHT22;14319;49.422;10.934;2023-08-08T11:27:15;18.50;62.90
26707;DHT22;14319;49.422;10.934;2023-08-08T11:29:16;18.60;64.10
26707;DHT22;14319;49.422;10.934;2023-08-08T11:31:19;18.60;62.70
26707;DHT22;14319;49.422;10.934;2023-08-08T11:33:20;18.40;61.50
26707;DHT22;14319;49.422;10.934;2023-08-08T11:35:24;18.50;63.90
26707;DHT22;14319;49.422;10.934;2023-08-08T11:37:25;18.50;62.60
26707;DHT22;14319;49.422;10.934;2023-08-08T11:39:26;18.40;60.60
26707;DHT22;14319;49.422;10.934;2023-08-08T11:41:27;18.40;60.70
26707;DHT22;14319;49.422;10.934;2023-08-08T11:43:28;18.40;59.90
26707;DHT22;14319;49.422;10.934;2023-08-08T11:45:29;18.40;62.40
26707;DHT22;14319;49.422;10.934;2023-08-08T11:47:29;18.30;61.80
26707;DHT22;14319;49.422;10.934;2023-08-08T11:49:41;18.30;60.50
26707;DHT22;14319;49.422;10.934;2023-08-08T11:51:46;18.30;63.70
26707;DHT22;14319;49.422;10.934;2023-08-08T11:53:53;18.40;62.30
26707;DHT22;14319;49.422;10.934;2023-08-08T11:55:54;18.50;63.20
26707;DHT22;14319;49.422;10.934;2023-08-08T11:57:55;18.40;61.40
26707;DHT22;14319;49.422;10.934;2023-08-08T12:00:04;18.40;62.30
26707;DHT22;14319;49.422;10.934;2023-08-08T12:02:13;18.50;63.30
26707;DHT22;14319;49.422;10.934;2023-08-08T12:04:14;18.70;61.90
26707;DHT22;14319;49.422;10.934;2023-08-08T12:06:16;18.80;62.10
26707;DHT22;14319;49.422;10.934;2023-08-08T12:08:21;18.90;62.00
26707;DHT22;14319;49.422;10.934;2023-08-08T12:10:23;19.00;60.20
26707;DHT22;14319;49.422;10.934;2023-08-08T12:12:27;19.00;61.50
26707;DHT22;14319;49.422;10.934;2023-08-08T12:14:28;19.00;60.00
26707;DHT22;14319;49.422;10.934;2023-08-08T12:16:29;19.10;60.70
26707;DHT22;14319;49.422;10.934;2023-08-08T12:18:34;19.00;59.40
26707;DHT22;14319;49.422;10.934;2023-08-08T12:20:35;19.00;62.20
26707;DHT22;14319;49.422;10.934;2023-08-08T12:22:35;19.00;60.90
26707;DHT22;14319;49.422;10.934;2023-08-08T12:24:36;19.00;61.00
26707;DHT22;14319;49.422;10.934;2023-08-08T12:26:37;19.10;61.80
26707;DHT22;14319;49.422;10.934;2023-08-08T12:28:38;19.10;62.00
26707;DHT22;14319;49.422;10.934;2023-08-08T12:30:39;19.10;62.70
26707;DHT22;14319;49.422;10.934;2023-08-08T12:32:40;19.10;62.50
26707;DHT22;14319;49.422;10.934;2023-08-08T12:34:40;19.20;62.30
26707;DHT22;14319;49.422;10.934;2023-08-08T12:36:41;19.30;61.50